VIV1392 MMMX-MMGL
Flight info
| Callsign | VIV1392 |
|---|---|
| Flight time | 0h 56m |
| Altitude | 34000 |
| Route | OVAGO3A OVAGO UT123 IGSON IGSON1B |
| Aircraft | A320/M-SDE3FGHIRWY/LB1 |
Departure
| Time | 2026-05-06 23:16 |
|---|---|
| Airport | Mexico City Benito Juárez International Airport (MMMX) |
Arrival
| Time | 2026-05-07 00:13 |
|---|---|
| Airport | Guadalajara International Airport (MMGL) |
| Time | Latitude | Longitude | Altitude | Speed | Heading |
|---|---|---|---|---|---|
| 2026-05-06 22:59 | 19.43265 | -99.08563 | 7303 ft | 0 kts | 319° |
| 2026-05-06 23:08 | 19.43255 | -99.08553 | 7303 ft | 4 kts | 318° |
| 2026-05-06 23:08 | 19.43235 | -99.08534 | 7303 ft | 4 kts | 317° |
| 2026-05-06 23:08 | 19.43218 | -99.08518 | 7303 ft | 4 kts | 312° |
| 2026-05-06 23:09 | 19.43207 | -99.08495 | 7303 ft | 4 kts | 263° |
| 2026-05-06 23:09 | 19.43212 | -99.08476 | 7303 ft | 0 kts | 240° |
| 2026-05-06 23:11 | 19.43209 | -99.08482 | 7303 ft | 2 kts | 240° |
| 2026-05-06 23:11 | 19.43195 | -99.08508 | 7303 ft | 6 kts | 239° |
| 2026-05-06 23:12 | 19.43169 | -99.08554 | 7303 ft | 9 kts | 239° |
| 2026-05-06 23:12 | 19.43135 | -99.08615 | 7303 ft | 11 kts | 239° |
| 2026-05-06 23:12 | 19.43092 | -99.08691 | 7303 ft | 13 kts | 239° |
| 2026-05-06 23:12 | 19.43042 | -99.08780 | 7303 ft | 15 kts | 238° |
| 2026-05-06 23:13 | 19.42985 | -99.08879 | 7303 ft | 17 kts | 239° |
| 2026-05-06 23:13 | 19.42924 | -99.08984 | 7303 ft | 13 kts | 237° |
| 2026-05-06 23:13 | 19.42900 | -99.09008 | 7303 ft | 0 kts | 209° |
| 2026-05-06 23:13 | 19.42899 | -99.09009 | 7303 ft | 0 kts | 207° |
| 2026-05-06 23:14 | 19.42898 | -99.09009 | 7303 ft | 0 kts | 207° |
| 2026-05-06 23:14 | 19.42894 | -99.09010 | 7303 ft | 1 kts | 200° |
| 2026-05-06 23:14 | 19.42879 | -99.09012 | 7303 ft | 3 kts | 181° |
| 2026-05-06 23:14 | 19.42851 | -99.09006 | 7303 ft | 5 kts | 161° |
| 2026-05-06 23:15 | 19.42819 | -99.08982 | 7302 ft | 6 kts | 124° |
| 2026-05-06 23:15 | 19.42826 | -99.08934 | 7303 ft | 8 kts | 63° |
| 2026-05-06 23:15 | 19.42893 | -99.08811 | 7303 ft | 48 kts | 59° |
| 2026-05-06 23:15 | 19.43198 | -99.08263 | 7303 ft | 120 kts | 59° |
| 2026-05-06 23:16 | 19.43722 | -99.07341 | 7305 ft | 173 kts | 59° |
| 2026-05-06 23:16 | 19.44388 | -99.06172 | 7759 ft | 186 kts | 62° |
| 2026-05-06 23:16 | 19.45065 | -99.04995 | 9007 ft | 184 kts | 58° |
| 2026-05-06 23:16 | 19.45743 | -99.03838 | 9410 ft | 190 kts | 58° |
| 2026-05-06 23:17 | 19.46444 | -99.02591 | 9486 ft | 205 kts | 58° |
| 2026-05-06 23:17 | 19.47196 | -99.01233 | 9529 ft | 224 kts | 59° |
| 2026-05-06 23:17 | 19.48021 | -98.99741 | 9578 ft | 246 kts | 59° |
| 2026-05-06 23:17 | 19.48916 | -98.98124 | 9622 ft | 266 kts | 60° |
| 2026-05-06 23:18 | 19.49565 | -98.96265 | 9809 ft | 275 kts | 89° |
| 2026-05-06 23:18 | 19.49161 | -98.94298 | 10296 ft | 277 kts | 123° |
| 2026-05-06 23:18 | 19.47791 | -98.92913 | 10863 ft | 275 kts | 156° |
| 2026-05-06 23:18 | 19.45920 | -98.92573 | 11456 ft | 276 kts | 189° |
| 2026-05-06 23:19 | 19.44177 | -98.93389 | 12025 ft | 280 kts | 222° |
| 2026-05-06 23:19 | 19.42987 | -98.95037 | 12643 ft | 285 kts | 241° |
| 2026-05-06 23:19 | 19.42100 | -98.96935 | 13268 ft | 289 kts | 244° |
| 2026-05-06 23:19 | 19.41238 | -98.98881 | 13867 ft | 293 kts | 244° |
| 2026-05-06 23:20 | 19.40378 | -99.00825 | 14424 ft | 296 kts | 244° |
| 2026-05-06 23:20 | 19.39443 | -99.02787 | 14949 ft | 299 kts | 238° |
| 2026-05-06 23:20 | 19.38309 | -99.04658 | 15463 ft | 303 kts | 236° |
| 2026-05-06 23:20 | 19.37294 | -99.06630 | 15996 ft | 308 kts | 247° |
| 2026-05-06 23:21 | 19.36697 | -99.08882 | 16181 ft | 326 kts | 259° |
| 2026-05-06 23:21 | 19.36306 | -99.11253 | 16563 ft | 334 kts | 260° |
| 2026-05-06 23:21 | 19.35945 | -99.13710 | 17042 ft | 339 kts | 260° |
| 2026-05-06 23:21 | 19.35598 | -99.16195 | 17530 ft | 342 kts | 261° |
| 2026-05-06 23:22 | 19.35250 | -99.18709 | 18011 ft | 346 kts | 261° |
| 2026-05-06 23:22 | 19.34896 | -99.21237 | 18526 ft | 349 kts | 261° |
| 2026-05-06 23:22 | 19.34536 | -99.23761 | 18941 ft | 351 kts | 259° |
| 2026-05-06 23:22 | 19.34162 | -99.26335 | 19389 ft | 354 kts | 259° |
| 2026-05-06 23:23 | 19.33781 | -99.28915 | 19880 ft | 355 kts | 259° |
| 2026-05-06 23:23 | 19.33396 | -99.31503 | 20377 ft | 356 kts | 260° |
| 2026-05-06 23:23 | 19.33009 | -99.34094 | 20855 ft | 356 kts | 258° |
| 2026-05-06 23:23 | 19.32621 | -99.36690 | 21313 ft | 358 kts | 258° |
| 2026-05-06 23:24 | 19.32233 | -99.39305 | 22103 ft | 359 kts | 258° |
| 2026-05-06 23:24 | 19.31799 | -99.41920 | 22344 ft | 370 kts | 257° |
| 2026-05-06 23:24 | 19.31289 | -99.44627 | 22520 ft | 380 kts | 256° |
| 2026-05-06 23:24 | 19.30734 | -99.47409 | 22696 ft | 391 kts | 256° |
| 2026-05-06 23:25 | 19.30155 | -99.50270 | 22831 ft | 402 kts | 256° |
| 2026-05-06 23:25 | 19.29567 | -99.53201 | 22961 ft | 412 kts | 256° |
| 2026-05-06 23:25 | 19.28973 | -99.56213 | 23089 ft | 423 kts | 257° |
| 2026-05-06 23:25 | 19.28375 | -99.59297 | 23251 ft | 431 kts | 257° |
| 2026-05-06 23:26 | 19.27773 | -99.62429 | 23567 ft | 435 kts | 257° |
| 2026-05-06 23:26 | 19.27177 | -99.65536 | 23905 ft | 437 kts | 257° |
| 2026-05-06 23:26 | 19.26563 | -99.68713 | 24162 ft | 439 kts | 257° |
| 2026-05-06 23:26 | 19.25947 | -99.71891 | 24216 ft | 439 kts | 257° |
| 2026-05-06 23:27 | 19.25332 | -99.75061 | 24186 ft | 439 kts | 257° |
| 2026-05-06 23:27 | 19.24716 | -99.78226 | 24131 ft | 439 kts | 257° |
| 2026-05-06 23:27 | 19.24100 | -99.81394 | 24093 ft | 440 kts | 257° |
| 2026-05-06 23:27 | 19.23499 | -99.84584 | 24353 ft | 442 kts | 256° |
| 2026-05-06 23:28 | 19.22922 | -99.87753 | 24639 ft | 443 kts | 257° |
| 2026-05-06 23:28 | 19.22349 | -99.90965 | 24914 ft | 444 kts | 257° |
| 2026-05-06 23:28 | 19.21781 | -99.94179 | 25193 ft | 446 kts | 257° |
| 2026-05-06 23:28 | 19.21202 | -99.97419 | 25503 ft | 447 kts | 257° |
| 2026-05-06 23:29 | 19.20618 | -100.00655 | 25789 ft | 448 kts | 256° |
| 2026-05-06 23:29 | 19.20032 | -100.03865 | 26070 ft | 450 kts | 257° |
| 2026-05-06 23:29 | 19.19435 | -100.07126 | 26367 ft | 452 kts | 257° |
| 2026-05-06 23:29 | 19.18892 | -100.10410 | 26674 ft | 454 kts | 261° |
| 2026-05-06 23:30 | 19.18807 | -100.13769 | 26893 ft | 459 kts | 272° |
| 2026-05-06 23:30 | 19.19279 | -100.17137 | 27170 ft | 464 kts | 282° |
| 2026-05-06 23:30 | 19.20238 | -100.20369 | 27446 ft | 467 kts | 287° |
| 2026-05-06 23:30 | 19.21289 | -100.23632 | 27741 ft | 469 kts | 287° |
| 2026-05-06 23:31 | 19.22333 | -100.26903 | 28039 ft | 470 kts | 286° |
| 2026-05-06 23:31 | 19.23378 | -100.30193 | 28361 ft | 470 kts | 286° |
| 2026-05-06 23:31 | 19.24067 | -100.32364 | 28705 ft | 469 kts | 286° |
| 2026-05-06 23:31 | 19.25109 | -100.35644 | 29159 ft | 468 kts | 286° |
| 2026-05-06 23:32 | 19.26139 | -100.38898 | 29627 ft | 466 kts | 286° |
| 2026-05-06 23:32 | 19.27167 | -100.42153 | 30072 ft | 464 kts | 287° |
| 2026-05-06 23:32 | 19.28189 | -100.45389 | 30432 ft | 463 kts | 286° |
| 2026-05-06 23:32 | 19.29211 | -100.48616 | 30848 ft | 461 kts | 286° |
| 2026-05-06 23:33 | 19.30230 | -100.51824 | 31269 ft | 459 kts | 286° |
| 2026-05-06 23:33 | 19.31246 | -100.55021 | 31695 ft | 457 kts | 286° |
| 2026-05-06 23:33 | 19.32256 | -100.58206 | 32118 ft | 455 kts | 286° |
| 2026-05-06 23:33 | 19.33254 | -100.61376 | 32562 ft | 453 kts | 286° |
| 2026-05-06 23:34 | 19.34236 | -100.64497 | 32991 ft | 452 kts | 286° |
| 2026-05-06 23:34 | 19.35228 | -100.67649 | 33425 ft | 451 kts | 285° |
| 2026-05-06 23:34 | 19.36218 | -100.70794 | 33720 ft | 449 kts | 286° |
| 2026-05-06 23:35 | 19.38270 | -100.77108 | 33781 ft | 455 kts | 287° |
| 2026-05-06 23:35 | 19.40478 | -100.83410 | 33779 ft | 456 kts | 288° |
| 2026-05-06 23:36 | 19.42699 | -100.89713 | 33791 ft | 456 kts | 288° |
| 2026-05-06 23:36 | 19.44869 | -100.95984 | 33791 ft | 456 kts | 287° |
| 2026-05-06 23:37 | 19.47028 | -101.02313 | 33845 ft | 456 kts | 287° |
| 2026-05-06 23:37 | 19.49189 | -101.08642 | 33848 ft | 456 kts | 287° |
| 2026-05-06 23:38 | 19.51355 | -101.14959 | 33846 ft | 456 kts | 287° |
| 2026-05-06 23:38 | 19.53507 | -101.21236 | 33843 ft | 455 kts | 287° |
| 2026-05-06 23:39 | 19.55670 | -101.27569 | 33842 ft | 455 kts | 287° |
| 2026-05-06 23:39 | 19.57807 | -101.33850 | 33869 ft | 455 kts | 287° |
| 2026-05-06 23:40 | 19.59953 | -101.40167 | 33870 ft | 455 kts | 287° |
| 2026-05-06 23:40 | 19.62099 | -101.46478 | 33893 ft | 455 kts | 287° |
| 2026-05-06 23:41 | 19.64252 | -101.52810 | 33901 ft | 455 kts | 287° |
| 2026-05-06 23:41 | 19.66400 | -101.59137 | 33901 ft | 455 kts | 287° |
| 2026-05-06 23:42 | 19.68532 | -101.65420 | 33921 ft | 455 kts | 287° |
| 2026-05-06 23:42 | 19.70672 | -101.71740 | 33906 ft | 455 kts | 287° |
| 2026-05-06 23:43 | 19.72812 | -101.78072 | 33925 ft | 454 kts | 287° |
| 2026-05-06 23:43 | 19.73864 | -101.81183 | 33892 ft | 439 kts | 287° |
| 2026-05-06 23:43 | 19.74867 | -101.84138 | 33793 ft | 422 kts | 287° |
| 2026-05-06 23:43 | 19.75842 | -101.87015 | 33642 ft | 406 kts | 287° |
| 2026-05-06 23:44 | 19.76784 | -101.89795 | 33524 ft | 394 kts | 286° |
| 2026-05-06 23:44 | 19.77701 | -101.92516 | 33298 ft | 387 kts | 286° |
| 2026-05-06 23:44 | 19.78598 | -101.95195 | 32978 ft | 383 kts | 286° |
| 2026-05-06 23:44 | 19.79486 | -101.97853 | 32623 ft | 380 kts | 286° |
| 2026-05-06 23:45 | 19.80368 | -102.00497 | 32234 ft | 378 kts | 286° |
| 2026-05-06 23:45 | 19.81248 | -102.03126 | 31882 ft | 377 kts | 286° |
| 2026-05-06 23:45 | 19.82125 | -102.05743 | 31529 ft | 375 kts | 286° |
| 2026-05-06 23:45 | 19.82988 | -102.08313 | 31182 ft | 373 kts | 286° |
| 2026-05-06 23:46 | 19.83872 | -102.10936 | 30813 ft | 372 kts | 286° |
| 2026-05-06 23:46 | 19.84733 | -102.13494 | 30461 ft | 370 kts | 286° |
| 2026-05-06 23:46 | 19.85592 | -102.16056 | 29992 ft | 366 kts | 286° |
| 2026-05-06 23:46 | 19.86444 | -102.18598 | 29346 ft | 364 kts | 286° |
| 2026-05-06 23:47 | 19.87293 | -102.21126 | 28700 ft | 361 kts | 286° |
| 2026-05-06 23:47 | 19.88133 | -102.23632 | 28077 ft | 358 kts | 286° |
| 2026-05-06 23:47 | 19.88965 | -102.26124 | 27471 ft | 356 kts | 286° |
| 2026-05-06 23:47 | 19.89789 | -102.28593 | 26865 ft | 353 kts | 286° |
| 2026-05-06 23:48 | 19.90600 | -102.31017 | 26268 ft | 351 kts | 286° |
| 2026-05-06 23:48 | 19.91416 | -102.33465 | 25662 ft | 349 kts | 286° |
| 2026-05-06 23:48 | 19.92226 | -102.35896 | 25063 ft | 347 kts | 286° |
| 2026-05-06 23:48 | 19.93031 | -102.38305 | 24542 ft | 345 kts | 286° |
| 2026-05-06 23:49 | 19.93831 | -102.40701 | 24017 ft | 343 kts | 286° |
| 2026-05-06 23:49 | 19.94628 | -102.43089 | 23497 ft | 341 kts | 286° |
| 2026-05-06 23:49 | 19.95411 | -102.45438 | 22887 ft | 339 kts | 286° |
| 2026-05-06 23:49 | 19.96198 | -102.47803 | 22159 ft | 340 kts | 286° |
| 2026-05-06 23:50 | 19.96989 | -102.50181 | 21480 ft | 340 kts | 286° |
| 2026-05-06 23:50 | 19.98561 | -102.54917 | 20276 ft | 338 kts | 286° |
| 2026-05-06 23:50 | 19.99344 | -102.57273 | 19680 ft | 337 kts | 286° |
| 2026-05-06 23:51 | 20.00284 | -102.59532 | 19086 ft | 340 kts | 300° |
| 2026-05-06 23:51 | 20.01774 | -102.61470 | 18565 ft | 339 kts | 317° |
| 2026-05-06 23:51 | 20.03686 | -102.62903 | 18080 ft | 335 kts | 332° |
| 2026-05-06 23:51 | 20.05759 | -102.64028 | 17512 ft | 331 kts | 333° |
| 2026-05-06 23:52 | 20.07805 | -102.65135 | 16973 ft | 328 kts | 332° |
| 2026-05-06 23:52 | 20.09829 | -102.66228 | 16455 ft | 324 kts | 332° |
| 2026-05-06 23:52 | 20.11829 | -102.67308 | 15933 ft | 320 kts | 332° |
| 2026-05-06 23:52 | 20.13830 | -102.68335 | 15398 ft | 318 kts | 339° |
| 2026-05-06 23:53 | 20.15947 | -102.68815 | 14909 ft | 314 kts | 357° |
| 2026-05-06 23:53 | 20.18102 | -102.68607 | 14430 ft | 311 kts | 14° |
| 2026-05-06 23:53 | 20.20125 | -102.67800 | 13914 ft | 308 kts | 22° |
| 2026-05-06 23:53 | 20.22064 | -102.66915 | 13693 ft | 299 kts | 22° |
| 2026-05-06 23:54 | 20.23994 | -102.66035 | 13659 ft | 302 kts | 23° |
| 2026-05-06 23:54 | 20.25929 | -102.65156 | 13668 ft | 301 kts | 22° |
| 2026-05-06 23:54 | 20.27869 | -102.64276 | 13661 ft | 303 kts | 21° |
| 2026-05-06 23:54 | 20.29807 | -102.63399 | 13663 ft | 302 kts | 22° |
| 2026-05-06 23:55 | 20.31749 | -102.62522 | 13665 ft | 303 kts | 22° |
| 2026-05-06 23:55 | 20.33726 | -102.61767 | 13657 ft | 301 kts | 11° |
| 2026-05-06 23:55 | 20.35801 | -102.61532 | 13662 ft | 297 kts | 354° |
| 2026-05-06 23:55 | 20.37843 | -102.61748 | 13666 ft | 294 kts | 348° |
| 2026-05-06 23:56 | 20.39851 | -102.62007 | 13666 ft | 294 kts | 349° |
| 2026-05-06 23:56 | 20.41883 | -102.62270 | 13674 ft | 294 kts | 350° |
| 2026-05-06 23:56 | 20.43912 | -102.62529 | 13674 ft | 293 kts | 351° |
| 2026-05-06 23:56 | 20.45949 | -102.62786 | 13673 ft | 294 kts | 351° |
| 2026-05-06 23:57 | 20.47977 | -102.63043 | 13662 ft | 293 kts | 349° |
| 2026-05-06 23:57 | 20.50004 | -102.63299 | 13664 ft | 293 kts | 350° |
| 2026-05-06 23:57 | 20.52032 | -102.63557 | 13672 ft | 293 kts | 348° |
| 2026-05-06 23:57 | 20.53996 | -102.64080 | 13669 ft | 289 kts | 335° |
| 2026-05-06 23:58 | 20.55752 | -102.65085 | 13684 ft | 285 kts | 320° |
| 2026-05-06 23:58 | 20.57339 | -102.66351 | 13682 ft | 285 kts | 319° |
| 2026-05-06 23:58 | 20.58930 | -102.67621 | 13681 ft | 286 kts | 320° |
| 2026-05-06 23:58 | 20.60504 | -102.68873 | 13684 ft | 285 kts | 319° |
| 2026-05-06 23:59 | 20.62098 | -102.70138 | 13683 ft | 285 kts | 320° |
| 2026-05-06 23:59 | 20.63693 | -102.71406 | 13687 ft | 285 kts | 320° |
| 2026-05-06 23:59 | 20.65274 | -102.72675 | 13675 ft | 284 kts | 318° |
| 2026-05-06 23:59 | 20.66531 | -102.74279 | 13695 ft | 282 kts | 295° |
| 2026-05-07 00:00 | 20.67066 | -102.76306 | 13694 ft | 285 kts | 271° |
| 2026-05-07 00:00 | 20.66799 | -102.78372 | 13381 ft | 288 kts | 246° |
| 2026-05-07 00:00 | 20.65743 | -102.80123 | 13042 ft | 278 kts | 226° |
| 2026-05-07 00:00 | 20.64761 | -102.81008 | 12684 ft | 277 kts | 218° |
| 2026-05-07 00:01 | 20.62717 | -102.82693 | 11923 ft | 277 kts | 219° |
| 2026-05-07 00:01 | 20.61192 | -102.83951 | 11366 ft | 277 kts | 220° |
| 2026-05-07 00:01 | 20.59675 | -102.85206 | 10873 ft | 275 kts | 220° |
| 2026-05-07 00:01 | 20.58169 | -102.86455 | 10366 ft | 273 kts | 221° |
| 2026-05-07 00:02 | 20.56723 | -102.87657 | 10147 ft | 259 kts | 219° |
| 2026-05-07 00:02 | 20.55341 | -102.88803 | 10047 ft | 246 kts | 219° |
| 2026-05-07 00:02 | 20.54019 | -102.89901 | 9934 ft | 236 kts | 221° |
| 2026-05-07 00:02 | 20.52748 | -102.90957 | 9825 ft | 224 kts | 221° |
| 2026-05-07 00:03 | 20.51543 | -102.91959 | 9649 ft | 219 kts | 221° |
| 2026-05-07 00:03 | 20.50332 | -102.92968 | 9541 ft | 219 kts | 222° |
| 2026-05-07 00:03 | 20.49144 | -102.93957 | 9442 ft | 219 kts | 221° |
| 2026-05-07 00:03 | 20.47948 | -102.94951 | 9339 ft | 217 kts | 221° |
| 2026-05-07 00:04 | 20.46745 | -102.95950 | 9234 ft | 219 kts | 221° |
| 2026-05-07 00:04 | 20.45538 | -102.96952 | 9123 ft | 217 kts | 220° |
| 2026-05-07 00:04 | 20.44385 | -102.97906 | 9031 ft | 202 kts | 220° |
| 2026-05-07 00:04 | 20.43320 | -102.98785 | 8947 ft | 185 kts | 222° |
| 2026-05-07 00:05 | 20.42351 | -102.99587 | 8852 ft | 168 kts | 221° |
| 2026-05-07 00:05 | 20.41443 | -103.00345 | 8772 ft | 165 kts | 224° |
| 2026-05-07 00:05 | 20.40758 | -103.01290 | 8702 ft | 160 kts | 248° |
| 2026-05-07 00:05 | 20.40477 | -103.02401 | 8644 ft | 156 kts | 266° |
| 2026-05-07 00:06 | 20.40599 | -103.03537 | 8588 ft | 154 kts | 287° |
| 2026-05-07 00:06 | 20.41024 | -103.04586 | 8521 ft | 153 kts | 292° |
| 2026-05-07 00:06 | 20.41452 | -103.05598 | 8443 ft | 151 kts | 292° |
| 2026-05-07 00:06 | 20.41881 | -103.06618 | 8379 ft | 151 kts | 293° |
| 2026-05-07 00:07 | 20.42311 | -103.07642 | 8288 ft | 152 kts | 293° |
| 2026-05-07 00:07 | 20.42744 | -103.08669 | 8168 ft | 151 kts | 291° |
| 2026-05-07 00:07 | 20.43178 | -103.09697 | 8036 ft | 151 kts | 291° |
| 2026-05-07 00:07 | 20.43605 | -103.10709 | 7910 ft | 149 kts | 291° |
| 2026-05-07 00:08 | 20.44030 | -103.11719 | 7780 ft | 149 kts | 291° |
| 2026-05-07 00:08 | 20.44446 | -103.12711 | 7831 ft | 148 kts | 291° |
| 2026-05-07 00:08 | 20.44868 | -103.13725 | 7640 ft | 148 kts | 292° |
| 2026-05-07 00:08 | 20.45290 | -103.14731 | 7548 ft | 150 kts | 293° |
| 2026-05-07 00:09 | 20.45715 | -103.15741 | 7406 ft | 149 kts | 292° |
| 2026-05-07 00:09 | 20.46135 | -103.16739 | 7259 ft | 148 kts | 292° |
| 2026-05-07 00:09 | 20.46559 | -103.17745 | 7102 ft | 150 kts | 294° |
| 2026-05-07 00:09 | 20.46986 | -103.18760 | 6936 ft | 150 kts | 294° |
| 2026-05-07 00:10 | 20.47411 | -103.19767 | 6792 ft | 148 kts | 294° |
| 2026-05-07 00:10 | 20.47832 | -103.20768 | 6643 ft | 147 kts | 292° |
| 2026-05-07 00:10 | 20.48250 | -103.21760 | 6481 ft | 147 kts | 292° |
| 2026-05-07 00:10 | 20.48668 | -103.22754 | 6322 ft | 146 kts | 292° |
| 2026-05-07 00:11 | 20.49078 | -103.23728 | 6183 ft | 145 kts | 294° |
| 2026-05-07 00:11 | 20.49495 | -103.24719 | 6044 ft | 147 kts | 291° |
| 2026-05-07 00:11 | 20.49926 | -103.25712 | 5808 ft | 148 kts | 290° |
| 2026-05-07 00:11 | 20.50345 | -103.26703 | 5651 ft | 147 kts | 290° |
| 2026-05-07 00:12 | 20.50747 | -103.27737 | 5428 ft | 152 kts | 291° |
| 2026-05-07 00:12 | 20.51187 | -103.28752 | 5183 ft | 150 kts | 290° |
| 2026-05-07 00:12 | 20.51615 | -103.29769 | 5031 ft | 149 kts | 291° |
| 2026-05-07 00:12 | 20.51988 | -103.30656 | 5028 ft | 109 kts | 295° |
| 2026-05-07 00:13 | 20.52232 | -103.31225 | 5029 ft | 58 kts | 294° |
| 2026-05-07 00:13 | 20.52354 | -103.31458 | 5031 ft | 24 kts | 312° |
| 2026-05-07 00:13 | 20.52459 | -103.31554 | 5029 ft | 18 kts | 326° |
| 2026-05-07 00:13 | 20.52542 | -103.31592 | 5029 ft | 11 kts | 2° |
| 2026-05-07 00:14 | 20.52619 | -103.31564 | 5029 ft | 12 kts | 22° |
| 2026-05-07 00:14 | 20.52674 | -103.31539 | 5029 ft | 14 kts | 24° |
| 2026-05-07 00:14 | 20.52756 | -103.31490 | 5029 ft | 13 kts | 53° |
| 2026-05-07 00:14 | 20.52742 | -103.31396 | 5029 ft | 14 kts | 113° |
| 2026-05-07 00:15 | 20.52701 | -103.31297 | 5028 ft | 15 kts | 114° |
| 2026-05-07 00:15 | 20.52656 | -103.31192 | 5029 ft | 16 kts | 114° |
| 2026-05-07 00:15 | 20.52610 | -103.31079 | 5029 ft | 17 kts | 111° |
| 2026-05-07 00:15 | 20.52563 | -103.30961 | 5029 ft | 15 kts | 115° |
| 2026-05-07 00:16 | 20.52519 | -103.30863 | 5029 ft | 15 kts | 115° |
| 2026-05-07 00:16 | 20.52489 | -103.30776 | 5029 ft | 10 kts | 91° |
| 2026-05-07 00:16 | 20.52510 | -103.30701 | 5029 ft | 11 kts | 70° |
| 2026-05-07 00:16 | 20.52534 | -103.30632 | 5029 ft | 8 kts | 70° |
| 2026-05-07 00:17 | 20.52525 | -103.30578 | 5027 ft | 5 kts | 136° |
| 2026-05-07 00:17 | 20.52507 | -103.30544 | 5029 ft | 6 kts | 85° |
| 2026-05-07 00:17 | 20.52520 | -103.30509 | 5028 ft | 3 kts | 65° |
| 2026-05-07 00:17 | 20.52522 | -103.30504 | 5029 ft | 0 kts | 65° |